Terminal Aerodrome Forecast
Issued by NWS

Home | Current Version | Previous Version | Text Only | Print | Product List | Glossary On
Versions: 1 2 3 4 5 6 7 8 9 10 11 12 13 14 15 16
000
FTUS43 KMQT 210520
TAFSAW
TAF
KSAW 210520Z 2106/2206 22010KT P6SM SCT150
     FM211000 25010KT P6SM SCT090
     FM211100 26011G22KT P6SM BKN060
     FM211200 27012G25KT P6SM VCSH BKN040
     FM211400 28014G27KT P6SM VCSH BKN030
     FM211500 29015G28KT P6SM BKN025
     FM211800 32018G29KT P6SM OVC025
     FM212300 32013G22KT P6SM BKN045
     FM220200 31009KT P6SM BKN040=

USA.gov is the U.S. government's official web portal to all federal, state and local government web resources and services.